createdAt,value
2018-09-03T00:00:35.365Z,8.03
2018-09-03T00:03:03.946Z,7.30
2018-09-03T00:05:32.531Z,9.87
2018-09-03T00:08:01.103Z,7.67
2018-09-03T00:10:29.689Z,8.10
2018-09-03T00:12:58.248Z,7.40
2018-09-03T00:15:26.841Z,7.80
2018-09-03T00:17:55.404Z,9.70
2018-09-03T00:20:24.023Z,7.57
2018-09-03T00:22:52.600Z,9.30
2018-09-03T00:25:21.223Z,11.47
2018-09-03T00:27:49.800Z,8.80
2018-09-03T00:30:18.399Z,7.33
2018-09-03T00:32:52.296Z,7.63
2018-09-03T00:35:26.314Z,8.40
2018-09-03T00:38:00.062Z,7.90
2018-09-03T00:41:31.778Z,10.27
2018-09-03T00:44:05.741Z,8.77
2018-09-03T00:46:39.477Z,8.90
2018-09-03T00:49:08.066Z,7.97
2018-09-03T00:51:36.666Z,8.10
2018-09-03T00:54:05.323Z,11.20
2018-09-03T00:56:33.965Z,8.13
2018-09-03T00:59:02.548Z,9.20
2018-09-03T01:01:31.139Z,9.33
2018-09-03T01:03:59.733Z,10.00
2018-09-03T01:06:28.348Z,11.80
2018-09-03T01:08:56.926Z,10.80
2018-09-03T01:11:26.493Z,10.20
2018-09-03T01:13:56.194Z,7.30
2018-09-03T01:16:24.881Z,8.10
2018-09-03T01:18:55.812Z,9.87
2018-09-03T01:21:25.283Z,8.10
2018-09-03T01:23:54.273Z,10.37
2018-09-03T01:26:22.835Z,7.73
2018-09-03T01:28:51.464Z,9.70
2018-09-03T01:31:21.623Z,6.83
2018-09-03T01:33:52.005Z,10.97
2018-09-03T01:36:20.990Z,8.13
2018-09-03T01:38:49.616Z,8.87
2018-09-03T01:41:19.015Z,8.00
2018-09-03T01:43:48.145Z,9.07
2018-09-03T01:46:16.721Z,8.63
2018-09-03T01:48:45.315Z,7.50
2018-09-03T01:51:13.889Z,10.07
2018-09-03T01:53:42.481Z,7.20
2018-09-03T01:56:11.061Z,10.60
2018-09-03T01:58:39.637Z,8.60
2018-09-03T02:01:08.218Z,8.00
2018-09-03T02:03:36.794Z,7.90
2018-09-03T02:06:05.395Z,9.00
2018-09-03T02:08:34.016Z,7.57
2018-09-03T02:11:02.589Z,9.53
2018-09-03T02:13:32.457Z,7.23
2018-09-03T02:16:01.015Z,7.13
2018-09-03T02:18:29.584Z,8.17
2018-09-03T02:20:58.214Z,7.53
2018-09-03T02:23:26.796Z,8.03
2018-09-03T02:25:55.385Z,6.03
2018-09-03T02:28:23.989Z,7.60
2018-09-03T02:30:52.576Z,8.53
2018-09-03T02:33:21.179Z,7.57
2018-09-03T02:35:49.761Z,7.47
2018-09-03T02:38:18.383Z,10.00
2018-09-03T02:40:46.967Z,7.93
2018-09-03T02:43:15.560Z,8.40
2018-09-03T02:45:44.154Z,8.77
2018-09-03T02:48:12.743Z,8.47
2018-09-03T02:50:41.316Z,6.87
2018-09-03T02:53:09.932Z,8.80
2018-09-03T02:55:38.504Z,6.70
2018-09-03T02:58:07.138Z,8.63
2018-09-03T03:00:35.717Z,6.03
2018-09-03T03:03:04.312Z,6.60
2018-09-03T03:05:32.908Z,9.30
2018-09-03T03:08:01.521Z,7.00
2018-09-03T03:10:30.088Z,8.10
2018-09-03T03:12:58.699Z,7.27
2018-09-03T03:15:27.289Z,7.60
2018-09-03T03:17:55.890Z,7.33
2018-09-03T03:20:24.467Z,8.70
2018-09-03T03:22:53.079Z,7.77
2018-09-03T03:25:21.703Z,7.03
2018-09-03T03:27:50.287Z,7.90
2018-09-03T03:30:18.893Z,8.73
2018-09-03T03:32:47.475Z,8.23
2018-09-03T03:35:16.160Z,6.97
2018-09-03T03:37:48.686Z,10.83
2018-09-03T03:40:18.333Z,6.10
2018-09-03T03:42:46.934Z,7.33
2018-09-03T03:45:15.546Z,7.17
2018-09-03T03:47:44.139Z,6.60
2018-09-03T03:50:12.744Z,9.50
2018-09-03T03:52:41.377Z,8.60
2018-09-03T03:55:10.156Z,6.07
2018-09-03T03:57:38.685Z,8.93
2018-09-03T04:00:07.586Z,8.37
2018-09-03T04:02:36.169Z,7.00
2018-09-03T04:05:04.828Z,6.60
2018-09-03T04:07:33.404Z,6.43
2018-09-03T04:10:02.005Z,6.70
2018-09-03T04:12:30.582Z,7.07
2018-09-03T04:14:59.249Z,7.43
2018-09-03T04:17:27.842Z,7.03
2018-09-03T04:20:05.804Z,6.20
2018-09-03T04:22:34.784Z,6.10
2018-09-03T04:25:04.133Z,6.60
2018-09-03T04:27:32.716Z,8.07
2018-09-03T04:30:01.345Z,6.20
2018-09-03T04:32:29.930Z,6.10
2018-09-03T04:34:58.518Z,9.87
2018-09-03T04:37:27.131Z,7.63
2018-09-03T04:39:56.290Z,8.20
2018-09-03T04:42:24.861Z,6.93
2018-09-03T04:44:53.486Z,7.00
2018-09-03T04:47:22.070Z,7.53
2018-09-03T04:49:50.732Z,7.03
2018-09-03T04:52:19.443Z,9.27
2018-09-03T04:54:48.080Z,6.67
2018-09-03T04:57:16.684Z,8.67
2018-09-03T04:59:45.311Z,8.10
2018-09-03T05:02:13.973Z,7.87
2018-09-03T05:04:42.619Z,9.27
2018-09-03T05:07:11.191Z,8.07
2018-09-03T05:09:39.841Z,8.67
2018-09-03T05:12:08.430Z,7.93
2018-09-03T05:14:37.378Z,9.17
2018-09-03T05:17:06.366Z,9.80
2018-09-03T05:19:34.982Z,7.83
2018-09-03T05:22:03.561Z,7.63
2018-09-03T05:24:32.168Z,8.17
2018-09-03T05:27:00.789Z,9.77
2018-09-03T05:29:29.426Z,14.20
2018-09-03T05:31:58.011Z,10.60
2018-09-03T05:34:26.635Z,10.37
2018-09-03T05:36:55.204Z,8.23
2018-09-03T05:39:23.801Z,8.70
2018-09-03T05:41:52.385Z,10.27
2018-09-03T05:44:20.958Z,10.93
2018-09-03T05:46:49.563Z,7.63
2018-09-03T05:49:18.154Z,8.97
2018-09-03T05:51:46.772Z,11.23
2018-09-03T05:54:15.334Z,12.90
2018-09-03T05:56:43.929Z,12.43
2018-09-03T05:59:12.537Z,9.97
2018-09-03T06:01:41.172Z,8.67
2018-09-03T06:04:09.783Z,9.50
2018-09-03T06:06:38.386Z,8.43
2018-09-03T06:09:09.217Z,8.20
2018-09-03T06:11:37.877Z,8.80
2018-09-03T06:14:06.471Z,8.20
2018-09-03T06:16:35.119Z,9.57
2018-09-03T06:19:03.690Z,11.60
2018-09-03T06:21:32.296Z,8.10
2018-09-03T06:24:00.989Z,9.20
2018-09-03T06:26:29.613Z,13.73
2018-09-03T06:28:58.191Z,9.50
2018-09-03T06:31:26.807Z,9.40
2018-09-03T06:33:55.405Z,10.23
2018-09-03T06:36:24.022Z,8.70
2018-09-03T06:38:52.664Z,7.80
2018-09-03T06:41:21.326Z,7.83
2018-09-03T06:43:49.924Z,8.73
2018-09-03T06:46:19.017Z,9.20
2018-09-03T06:48:48.005Z,8.97
2018-09-03T06:51:16.625Z,7.20
2018-09-03T06:53:45.251Z,8.13
2018-09-03T06:56:13.844Z,8.10
2018-09-03T06:58:42.738Z,8.03
2018-09-03T07:01:11.537Z,7.77
2018-09-03T07:03:40.153Z,7.57
2018-09-03T07:06:08.770Z,7.70
2018-09-03T07:08:38.167Z,9.40
2018-09-03T07:11:07.170Z,8.10
2018-09-03T07:13:35.857Z,7.57
2018-09-03T07:16:04.477Z,12.70
2018-09-03T07:18:33.050Z,9.50
2018-09-03T07:21:01.657Z,9.23
2018-09-03T07:23:30.248Z,7.70
2018-09-03T07:25:58.854Z,9.97
2018-09-03T07:28:27.417Z,7.23
2018-09-03T07:30:56.320Z,8.70
2018-09-03T07:33:24.882Z,7.00
2018-09-03T07:35:53.518Z,12.53
2018-09-03T07:38:22.135Z,11.80
2018-09-03T07:40:50.700Z,7.60
2018-09-03T07:43:19.325Z,11.40
2018-09-03T07:45:47.892Z,9.50
2018-09-03T07:48:16.480Z,9.40
2018-09-03T07:50:45.038Z,8.70
2018-09-03T07:53:13.638Z,8.27
2018-09-03T07:55:42.209Z,8.57
2018-09-03T07:58:10.798Z,9.03
2018-09-03T08:00:39.381Z,8.50
2018-09-03T08:03:07.981Z,8.87
2018-09-03T08:05:36.568Z,8.60
2018-09-03T08:08:05.312Z,13.40
2018-09-03T08:10:33.861Z,9.40
2018-09-03T08:13:02.524Z,9.07
2018-09-03T08:15:31.066Z,9.53
2018-09-03T08:17:59.687Z,9.03
2018-09-03T08:20:28.249Z,8.73
2018-09-03T08:22:56.849Z,8.77
2018-09-03T08:25:25.650Z,11.23
2018-09-03T08:27:54.324Z,10.13
2018-09-03T08:30:22.902Z,8.27
2018-09-03T08:32:51.498Z,10.20
2018-09-03T08:35:20.050Z,13.13
2018-09-03T08:37:48.645Z,11.00
2018-09-03T08:40:17.301Z,11.20
2018-09-03T08:42:45.906Z,9.50
2018-09-03T08:45:14.526Z,9.30
2018-09-03T08:47:43.109Z,9.40
2018-09-03T08:50:11.698Z,8.97
2018-09-03T08:52:40.301Z,13.03
2018-09-03T08:55:08.881Z,12.03
2018-09-03T08:57:37.455Z,10.87
2018-09-03T09:00:06.433Z,12.33
2018-09-03T09:02:35.049Z,10.60
2018-09-03T09:05:03.759Z,9.53
2018-09-03T09:07:32.371Z,11.70
2018-09-03T09:10:00.987Z,11.20
2018-09-03T09:12:29.560Z,9.13
2018-09-03T09:14:58.125Z,10.10
2018-09-03T09:17:26.723Z,10.17
2018-09-03T09:19:55.312Z,11.67
2018-09-03T09:22:23.885Z,9.47
2018-09-03T09:24:52.536Z,10.70
2018-09-03T09:27:21.112Z,12.33
2018-09-03T09:29:49.672Z,10.70
2018-09-03T09:32:18.416Z,10.53
2018-09-03T09:34:47.265Z,10.20
2018-09-03T09:37:15.925Z,10.53
2018-09-03T09:39:45.017Z,9.13
2018-09-03T09:42:13.571Z,9.87
2018-09-03T09:44:42.174Z,12.13
2018-09-03T09:47:10.785Z,10.60
2018-09-03T09:49:39.420Z,11.67
2018-09-03T09:52:07.998Z,17.80
2018-09-03T09:54:36.589Z,11.43
2018-09-03T09:57:05.361Z,11.63
2018-09-03T09:59:34.012Z,14.53
2018-09-03T10:02:02.750Z,10.07
2018-09-03T10:04:31.374Z,10.20
2018-09-03T10:06:59.969Z,11.60
2018-09-03T10:09:28.579Z,10.30
2018-09-03T10:11:57.142Z,10.23
2018-09-03T10:14:25.745Z,13.40
2018-09-03T10:16:54.360Z,10.20
2018-09-03T10:19:22.953Z,10.87
2018-09-03T10:21:51.545Z,12.47
2018-09-03T10:24:20.198Z,10.63
2018-09-03T10:26:48.821Z,11.80
2018-09-03T10:29:17.465Z,10.37
2018-09-03T10:31:46.093Z,11.90
2018-09-03T10:34:14.681Z,12.33
2018-09-03T10:36:43.580Z,10.47
2018-09-03T10:39:12.205Z,10.63
2018-09-03T10:41:40.758Z,12.17
2018-09-03T10:44:09.437Z,10.70
2018-09-03T10:46:38.020Z,10.67
2018-09-03T10:49:06.625Z,11.23
2018-09-03T10:51:35.211Z,12.10
2018-09-03T10:54:03.835Z,11.80
2018-09-03T10:56:32.440Z,12.47
2018-09-03T10:59:01.053Z,11.37
2018-09-03T11:01:29.659Z,12.90
2018-09-03T11:03:58.262Z,13.33
2018-09-03T11:06:26.837Z,12.67
2018-09-03T11:08:55.444Z,12.53
2018-09-03T11:11:24.033Z,15.50
2018-09-03T11:13:52.630Z,12.53
2018-09-03T11:16:21.265Z,13.83
2018-09-03T11:18:49.861Z,12.43
2018-09-03T11:21:18.622Z,13.17
2018-09-03T11:23:47.091Z,18.53
2018-09-03T11:26:15.691Z,16.13
2018-09-03T11:28:44.383Z,12.90
2018-09-03T11:31:12.977Z,13.50
2018-09-03T11:33:41.588Z,13.00
2018-09-03T11:36:10.172Z,15.90
2018-09-03T11:38:38.781Z,12.50
2018-09-03T11:41:07.482Z,12.67
2018-09-03T11:43:36.070Z,13.00
2018-09-03T11:46:04.739Z,12.93
2018-09-03T11:48:33.315Z,12.90
2018-09-03T11:51:01.930Z,12.90
2018-09-03T11:53:30.562Z,13.00
2018-09-03T11:55:59.153Z,14.07
2018-09-03T11:58:27.791Z,12.23
2018-09-03T12:00:59.993Z,14.50
2018-09-03T12:03:28.600Z,15.00
2018-09-03T12:05:57.259Z,12.80
2018-09-03T12:08:25.836Z,14.23
2018-09-03T12:10:54.439Z,12.80
2018-09-03T12:13:23.014Z,13.40
2018-09-03T12:16:24.242Z,14.90
2018-09-03T12:18:54.684Z,13.30
2018-09-03T12:21:23.279Z,12.97
2018-09-03T12:23:51.853Z,12.67
2018-09-03T12:26:20.491Z,12.17
2018-09-03T12:28:49.186Z,12.80
2018-09-03T12:31:17.862Z,17.80
2018-09-03T12:33:47.367Z,12.43
2018-09-03T12:36:15.968Z,13.30
2018-09-03T12:38:44.533Z,14.70
2018-09-03T12:41:13.201Z,12.90
2018-09-03T12:43:41.836Z,14.20
2018-09-03T12:46:10.437Z,12.90
2018-09-03T12:48:39.015Z,14.83
2018-09-03T12:51:07.654Z,12.13
2018-09-03T12:53:36.238Z,12.67
2018-09-03T12:56:04.912Z,12.47
2018-09-03T12:58:33.586Z,12.63
2018-09-03T13:01:02.160Z,12.73
2018-09-03T13:03:30.722Z,15.07
2018-09-03T13:05:59.313Z,13.80
2018-09-03T13:08:27.869Z,14.90
2018-09-03T13:10:56.477Z,14.00
2018-09-03T13:13:25.056Z,19.50
2018-09-03T13:15:53.678Z,14.83
2018-09-03T13:18:22.256Z,13.23
2018-09-03T13:20:50.859Z,14.67
2018-09-03T13:23:19.439Z,16.97
2018-09-03T13:25:48.056Z,14.00
2018-09-03T13:28:16.620Z,13.33
2018-09-03T13:30:45.251Z,13.93
2018-09-03T13:33:13.803Z,16.93
2018-09-03T13:35:42.380Z,13.23
2018-09-03T13:38:10.948Z,13.07
2018-09-03T13:40:39.961Z,14.50
2018-09-03T13:43:08.597Z,14.00
2018-09-03T13:45:37.202Z,16.93
2018-09-03T13:48:05.847Z,13.43
2018-09-03T13:50:34.413Z,14.90
2018-09-03T13:53:02.988Z,15.70
2018-09-03T13:55:31.589Z,12.20
2018-09-03T13:58:00.142Z,12.03
2018-09-03T14:00:28.734Z,13.47
2018-09-03T14:02:57.313Z,13.20
2018-09-03T14:05:25.921Z,11.60
2018-09-03T14:07:54.500Z,14.00
2018-09-03T14:10:23.089Z,15.97
2018-09-03T14:12:51.649Z,13.80
2018-09-03T14:15:20.262Z,13.97
2018-09-03T14:17:48.808Z,18.20
2018-09-03T14:20:17.360Z,12.53
2018-09-03T14:22:45.961Z,11.77
2018-09-03T14:25:14.563Z,11.83
2018-09-03T14:27:43.254Z,12.07
2018-09-03T14:30:11.815Z,13.13
2018-09-03T14:32:40.432Z,12.07
2018-09-03T14:35:09.291Z,11.70
2018-09-03T14:37:37.885Z,12.13
2018-09-03T14:40:06.544Z,13.90
2018-09-03T14:42:35.165Z,12.30
2018-09-03T14:45:03.756Z,12.70
2018-09-03T14:47:32.324Z,12.90
2018-09-03T14:50:00.935Z,15.80
2018-09-03T14:52:29.565Z,12.20
2018-09-03T14:54:58.135Z,13.17
2018-09-03T14:57:26.744Z,12.17
2018-09-03T14:59:55.396Z,11.80
2018-09-03T15:02:24.037Z,12.60
2018-09-03T15:04:56.078Z,13.90
2018-09-03T15:07:24.682Z,15.33
2018-09-03T15:09:53.412Z,12.47
2018-09-03T15:12:22.014Z,12.07
2018-09-03T15:14:50.601Z,11.97
2018-09-03T15:17:19.219Z,12.27
2018-09-03T15:19:47.776Z,13.10
2018-09-03T15:22:16.370Z,12.47
2018-09-03T15:24:44.994Z,12.80
2018-09-03T15:27:13.585Z,17.33
2018-09-03T15:29:42.156Z,14.40
2018-09-03T15:32:10.782Z,13.80
2018-09-03T15:34:39.375Z,12.43
2018-09-03T15:37:07.980Z,16.27
2018-09-03T15:39:36.576Z,12.67
2018-09-03T15:42:05.251Z,12.00
2018-09-03T15:44:33.848Z,11.80
2018-09-03T15:47:02.554Z,13.20
2018-09-03T15:49:31.150Z,11.90
2018-09-03T15:51:59.814Z,15.60
2018-09-03T15:54:28.373Z,12.03
2018-09-03T15:56:56.975Z,12.13
2018-09-03T15:59:25.590Z,12.00
2018-09-03T16:01:54.190Z,12.47
2018-09-03T16:04:22.781Z,12.33
2018-09-03T16:06:51.376Z,12.73
2018-09-03T16:09:19.974Z,12.20
2018-09-03T16:11:48.704Z,12.27
2018-09-03T16:14:29.063Z,11.97
2018-09-03T16:16:57.630Z,11.60
2018-09-03T16:19:26.204Z,14.77
2018-09-03T16:21:54.791Z,12.30
2018-09-03T16:24:23.418Z,11.53
2018-09-03T16:26:52.017Z,12.00
2018-09-03T16:29:20.607Z,12.53
2018-09-03T16:31:49.210Z,11.80
2018-09-03T16:34:17.776Z,12.30
2018-09-03T16:36:46.369Z,13.00
2018-09-03T16:39:14.939Z,11.07
2018-09-03T16:41:43.540Z,11.13
2018-09-03T16:44:12.123Z,13.23
2018-09-03T16:46:40.722Z,14.20
2018-09-03T16:49:09.389Z,11.27
2018-09-03T16:51:37.918Z,12.70
2018-09-03T16:54:06.601Z,14.87
2018-09-03T16:56:35.188Z,11.40
2018-09-03T16:59:03.773Z,14.83
2018-09-03T17:01:32.470Z,11.50
2018-09-03T17:04:00.987Z,11.40
2018-09-03T17:06:29.545Z,13.87
2018-09-03T17:08:58.158Z,16.00
2018-09-03T17:11:26.795Z,13.37
2018-09-03T17:13:55.391Z,20.47
2018-09-03T17:16:23.960Z,12.40
2018-09-03T17:18:52.617Z,13.47
2018-09-03T17:21:21.200Z,13.27
2018-09-03T17:23:49.788Z,11.60
2018-09-03T17:26:18.396Z,13.10
2018-09-03T17:28:47.029Z,12.23
2018-09-03T17:31:15.607Z,13.10
2018-09-03T17:33:44.185Z,8.70
2018-09-03T17:36:12.761Z,8.83
2018-09-03T17:38:41.446Z,9.27
2018-09-03T17:41:10.014Z,13.20
2018-09-03T17:43:38.598Z,7.67
2018-09-03T17:46:07.171Z,9.17
2018-09-03T17:48:35.796Z,7.60
2018-09-03T17:51:04.426Z,7.53
2018-09-03T17:53:33.032Z,6.70
2018-09-03T17:56:01.601Z,6.90
2018-09-03T17:58:30.243Z,7.30
2018-09-03T18:00:58.866Z,6.47
2018-09-03T18:03:27.492Z,8.53
2018-09-03T18:05:56.109Z,7.13
2018-09-03T18:08:25.154Z,6.83
2018-09-03T18:10:53.715Z,6.87
2018-09-03T18:13:22.307Z,8.57
2018-09-03T18:15:50.875Z,8.30
2018-09-03T18:18:19.492Z,6.57
2018-09-03T18:20:48.083Z,6.30
2018-09-03T18:23:16.670Z,11.70
2018-09-03T18:25:45.277Z,9.57
2018-09-03T18:28:13.876Z,6.57
2018-09-03T18:30:42.513Z,5.80
2018-09-03T18:33:11.104Z,7.93
2018-09-03T18:35:39.697Z,7.17
2018-09-03T18:38:08.288Z,11.33
2018-09-03T18:40:36.887Z,9.40
2018-09-03T18:43:05.524Z,5.57
2018-09-03T18:45:34.114Z,7.80
2018-09-03T18:48:02.705Z,7.43
2018-09-03T18:50:31.290Z,6.40
2018-09-03T18:52:59.901Z,9.50
2018-09-03T18:55:28.505Z,8.07
2018-09-03T18:57:57.083Z,7.50
2018-09-03T19:00:25.776Z,7.53
2018-09-03T19:02:54.346Z,7.13
2018-09-03T19:05:22.953Z,6.77
2018-09-03T19:07:51.533Z,6.10
2018-09-03T19:10:20.134Z,5.63
2018-09-03T19:12:48.721Z,6.97
2018-09-03T19:15:17.329Z,8.53
2018-09-03T19:17:45.909Z,7.63
2018-09-03T19:20:14.525Z,6.17
2018-09-03T19:22:43.096Z,9.23
2018-09-03T19:25:11.706Z,7.10
2018-09-03T19:27:40.291Z,7.50
2018-09-03T19:30:09.009Z,7.77
2018-09-03T19:32:37.630Z,5.30
2018-09-03T19:35:06.247Z,5.73
2018-09-03T19:37:34.819Z,7.10
2018-09-03T19:40:03.480Z,6.60
2018-09-03T19:42:32.047Z,5.80
2018-09-03T19:45:00.710Z,5.27
2018-09-03T19:47:29.289Z,10.27
2018-09-03T19:49:57.886Z,10.60
2018-09-03T19:52:26.448Z,5.27
2018-09-03T19:54:55.044Z,8.33
2018-09-03T19:57:23.605Z,7.80
2018-09-03T19:59:52.237Z,5.53
2018-09-03T20:02:20.801Z,4.87
2018-09-03T20:04:49.398Z,10.03
2018-09-03T20:07:17.989Z,11.20
2018-09-03T20:09:46.613Z,8.43
2018-09-03T20:12:15.247Z,9.23
2018-09-03T20:14:43.959Z,5.70
2018-09-03T20:17:12.615Z,4.90
2018-09-03T20:19:41.177Z,7.30
2018-09-03T20:22:15.405Z,9.93
2018-09-03T20:24:44.087Z,6.27
2018-09-03T20:27:13.009Z,8.70
2018-09-03T20:29:41.789Z,6.80
2018-09-03T20:32:10.406Z,6.63
2018-09-03T20:34:39.194Z,6.10
2018-09-03T20:37:08.454Z,9.70
2018-09-03T20:39:37.189Z,7.57
2018-09-03T20:42:05.823Z,6.30
2018-09-03T20:44:34.552Z,6.63
2018-09-03T20:47:03.133Z,7.07
2018-09-03T20:49:31.756Z,5.50
2018-09-03T20:52:01.172Z,5.90
2018-09-03T20:54:29.756Z,9.70
2018-09-03T20:56:58.363Z,6.30
2018-09-03T20:59:26.982Z,8.20
2018-09-03T21:01:55.632Z,7.00
2018-09-03T21:04:24.225Z,7.57
2018-09-03T21:06:52.900Z,6.27
2018-09-03T21:09:21.529Z,6.03
2018-09-03T21:11:50.141Z,6.27
2018-09-03T21:14:18.729Z,8.80
2018-09-03T21:16:47.326Z,8.20
2018-09-03T21:19:15.922Z,8.60
2018-09-03T21:21:44.604Z,7.73
2018-09-03T21:24:13.160Z,7.33
2018-09-03T21:26:41.786Z,6.60
2018-09-03T21:29:10.422Z,7.73
2018-09-03T21:31:39.040Z,6.17
2018-09-03T21:34:07.647Z,11.63
2018-09-03T21:36:36.240Z,7.63
2018-09-03T21:39:05.080Z,6.30
2018-09-03T21:41:33.766Z,11.27
2018-09-03T21:44:02.816Z,7.00
2018-09-03T21:46:31.426Z,8.50
2018-09-03T21:49:00.019Z,7.27
2018-09-03T21:51:28.632Z,10.47
2018-09-03T21:53:57.205Z,11.33
2018-09-03T21:56:25.814Z,7.00
2018-09-03T21:58:54.438Z,11.20
2018-09-03T22:01:23.062Z,7.77
2018-09-03T22:03:51.646Z,6.37
2018-09-03T22:06:20.246Z,9.93
2018-09-03T22:08:49.221Z,8.70
2018-09-03T22:11:17.819Z,6.30
2018-09-03T22:13:46.397Z,9.50
2018-09-03T22:16:15.018Z,11.67
2018-09-03T22:18:43.615Z,8.80
2018-09-03T22:21:12.257Z,7.80
2018-09-03T22:23:40.852Z,7.57
2018-09-03T22:26:09.494Z,6.93
2018-09-03T22:28:38.074Z,6.73
2018-09-03T22:31:06.718Z,9.43
2018-09-03T22:33:35.282Z,8.87
2018-09-03T22:36:03.892Z,7.73
2018-09-03T22:38:32.499Z,8.43
2018-09-03T22:41:01.100Z,6.93
2018-09-03T22:43:29.679Z,7.30
2018-09-03T22:45:58.292Z,7.90
2018-09-03T22:48:26.900Z,8.80
2018-09-03T22:50:55.619Z,13.13
2018-09-03T22:53:24.222Z,8.70
2018-09-03T22:55:52.803Z,8.00
2018-09-03T22:58:21.401Z,8.00
2018-09-03T23:00:49.989Z,7.00
2018-09-03T23:03:18.589Z,7.40
2018-09-03T23:05:47.204Z,9.67
2018-09-03T23:08:15.787Z,9.30
2018-09-03T23:10:44.361Z,10.80
2018-09-03T23:13:12.964Z,8.37
2018-09-03T23:15:45.664Z,9.70
2018-09-03T23:18:14.289Z,9.70
2018-09-03T23:20:42.872Z,9.60
2018-09-03T23:23:11.485Z,10.97
2018-09-03T23:25:40.087Z,8.87
2018-09-03T23:28:08.685Z,11.17
2018-09-03T23:30:37.274Z,10.67
2018-09-03T23:33:06.053Z,10.63
2018-09-03T23:35:34.637Z,9.63
2018-09-03T23:38:03.238Z,10.20
2018-09-03T23:40:31.826Z,12.03
2018-09-03T23:43:00.476Z,10.87
2018-09-03T23:45:29.066Z,11.50
2018-09-03T23:47:57.723Z,13.70
2018-09-03T23:50:26.303Z,9.40
2018-09-03T23:52:55.174Z,11.93
2018-09-03T23:55:23.858Z,11.90
2018-09-03T23:57:52.471Z,11.77
